TFM - Tactical Decision Aid (Experimental) INFO Settings
ID: Runway Winds: CIG/VIS Threshold: METAR Board: Map:

KDNL - Augusta-Daniel Field

Updated at: 0122 UTC 20 Feb 2018
Latest TAF at: 2320 UTC 19 Feb 2018

TAF Board

Time0053Z20/02Z20/03Z20/04Z20/05Z20/06Z20/07Z20/08Z20/09Z20/10Z20/11Z20/12Z20/13Z20/14Z
TypeOBSPRVLPRVLPRVLPRVLPRVLPRVLPRVLPRVLPRVLPRVLPRVLPRVLPRVL
VIS10>6>6>6>60.50.50.50.50.50.50.50.50.5
CIG--150150150150333333333
CoverSCTBKNBKNBKNBKNOVXOVXOVXOVXOVXOVXOVXOVXOVX
FltCatVFRVFRVFRVFRVFRLIFRLIFRLIFRLIFRLIFRLIFRLIFRLIFRLIFR
WX----------FGFGFGFGFGFGFGFGFG
WDir100VRBVRBVRBVRBVRBVRBVRBVRBVRBVRBVRBVRBVRB
WSpd54444333333333
WGst----------------------------
TAF
KDNL 192320Z 2000/2024 VRB04KT P6SM BKN150
  FM200600 VRB03KT 1/2SM FG VV003
  FM201500 VRB04KT 2SM BR BKN008
  FM201700 18006KT P6SM BKN015
  FM202000 16006KT P6SM SCT035


METAR
KDNL 200053Z AUTO 10005KT 10SM SCT048 22/16 A3033 RMK AO2 SLP267 T02170161
KDNL 192353Z AUTO 06004KT 10SM CLR 22/16 A3032 RMK AO2 SLP265 T02220161 10239 20189 53006

TAF/METAR Board Legend

Potential Impact
  None Marginal Slight Moderate High
Visibility (sm) >5 3≤X≤5 2≤X<3 1≤X<2 <1
Ceiling (100 ft) >30 10≤X≤30 8≤X<10 5≤X<8 <5
Wind Speed (kt) <10 10≤X<20 20≤X<30 ≥30
Wind Gust (kt) <15 15≤X<25 25≤X<35 ≥35
Weather No Wx Reported VCTS -TS,-FZRA TS,FZRA +TS,+FZRA